sensor_id;sensor_type;location;lat;lon;timestamp;P1;durP1;ratioP1;P2;durP2;ratioP2
14377;SDS011;7272;53.668;9.578;2024-01-06T00:02:13;5.33;;;4.93;;
14377;SDS011;7272;53.668;9.578;2024-01-06T00:05:14;5.13;;;4.73;;
14377;SDS011;7272;53.668;9.578;2024-01-06T00:08:16;5.80;;;5.30;;
14377;SDS011;7272;53.668;9.578;2024-01-06T00:11:17;5.97;;;5.47;;
14377;SDS011;7272;53.668;9.578;2024-01-06T00:14:18;6.20;;;5.30;;
14377;SDS011;7272;53.668;9.578;2024-01-06T00:17:20;5.33;;;4.83;;
14377;SDS011;7272;53.668;9.578;2024-01-06T00:20:21;5.23;;;4.73;;
14377;SDS011;7272;53.668;9.578;2024-01-06T00:23:22;6.13;;;5.53;;
14377;SDS011;7272;53.668;9.578;2024-01-06T00:26:23;5.80;;;5.30;;
14377;SDS011;7272;53.668;9.578;2024-01-06T00:29:25;6.00;;;5.47;;
14377;SDS011;7272;53.668;9.578;2024-01-06T00:32:26;6.30;;;5.70;;
14377;SDS011;7272;53.668;9.578;2024-01-06T00:35:28;6.27;;;5.67;;
14377;SDS011;7272;53.668;9.578;2024-01-06T00:38:29;6.43;;;5.83;;
14377;SDS011;7272;53.668;9.578;2024-01-06T00:41:30;6.87;;;6.13;;
14377;SDS011;7272;53.668;9.578;2024-01-06T00:44:32;6.40;;;5.90;;
14377;SDS011;7272;53.668;9.578;2024-01-06T00:47:35;6.03;;;5.43;;
14377;SDS011;7272;53.668;9.578;2024-01-06T00:50:36;6.30;;;5.70;;
14377;SDS011;7272;53.668;9.578;2024-01-06T00:53:38;7.47;;;6.40;;
14377;SDS011;7272;53.668;9.578;2024-01-06T00:56:39;6.63;;;5.93;;
14377;SDS011;7272;53.668;9.578;2024-01-06T00:59:42;6.60;;;6.00;;
14377;SDS011;7272;53.668;9.578;2024-01-06T01:02:45;6.27;;;5.67;;
14377;SDS011;7272;53.668;9.578;2024-01-06T01:05:46;5.97;;;5.37;;
14377;SDS011;7272;53.668;9.578;2024-01-06T01:08:47;6.17;;;5.63;;
14377;SDS011;7272;53.668;9.578;2024-01-06T01:11:48;5.50;;;5.00;;
14377;SDS011;7272;53.668;9.578;2024-01-06T01:14:50;6.30;;;5.70;;
14377;SDS011;7272;53.668;9.578;2024-01-06T01:17:53;5.93;;;5.33;;
14377;SDS011;7272;53.668;9.578;2024-01-06T01:20:54;6.27;;;5.67;;
14377;SDS011;7272;53.668;9.578;2024-01-06T01:23:55;6.00;;;5.23;;
14377;SDS011;7272;53.668;9.578;2024-01-06T01:26:57;6.33;;;5.73;;
14377;SDS011;7272;53.668;9.578;2024-01-06T01:29:58;6.43;;;5.87;;
14377;SDS011;7272;53.668;9.578;2024-01-06T01:33:00;6.30;;;5.70;;
14377;SDS011;7272;53.668;9.578;2024-01-06T01:36:01;6.50;;;5.90;;
14377;SDS011;7272;53.668;9.578;2024-01-06T01:39:02;6.57;;;5.97;;
14377;SDS011;7272;53.668;9.578;2024-01-06T01:42:04;6.00;;;5.50;;
14377;SDS011;7272;53.668;9.578;2024-01-06T01:45:06;6.30;;;5.70;;
14377;SDS011;7272;53.668;9.578;2024-01-06T01:48:08;6.40;;;5.80;;
14377;SDS011;7272;53.668;9.578;2024-01-06T01:51:09;5.93;;;5.40;;
14377;SDS011;7272;53.668;9.578;2024-01-06T01:54:11;6.33;;;5.73;;
14377;SDS011;7272;53.668;9.578;2024-01-06T01:57:12;6.53;;;5.93;;
14377;SDS011;7272;53.668;9.578;2024-01-06T02:00:15;6.10;;;5.60;;
14377;SDS011;7272;53.668;9.578;2024-01-06T02:03:17;6.90;;;6.30;;
14377;SDS011;7272;53.668;9.578;2024-01-06T02:06:19;7.03;;;6.43;;
14377;SDS011;7272;53.668;9.578;2024-01-06T02:09:20;6.90;;;6.20;;
14377;SDS011;7272;53.668;9.578;2024-01-06T02:12:23;5.83;;;5.33;;
14377;SDS011;7272;53.668;9.578;2024-01-06T02:15:24;6.37;;;5.73;;
14377;SDS011;7272;53.668;9.578;2024-01-06T02:18:26;7.10;;;6.50;;
14377;SDS011;7272;53.668;9.578;2024-01-06T02:21:27;5.77;;;5.27;;
14377;SDS011;7272;53.668;9.578;2024-01-06T02:24:31;6.63;;;6.03;;
14377;SDS011;7272;53.668;9.578;2024-01-06T02:27:32;6.90;;;6.30;;
14377;SDS011;7272;53.668;9.578;2024-01-06T02:30:33;6.90;;;6.30;;
14377;SDS011;7272;53.668;9.578;2024-01-06T02:33:35;7.13;;;6.43;;
14377;SDS011;7272;53.668;9.578;2024-01-06T02:36:37;7.37;;;6.70;;
14377;SDS011;7272;53.668;9.578;2024-01-06T02:39:38;6.47;;;5.93;;
14377;SDS011;7272;53.668;9.578;2024-01-06T02:42:40;8.33;;;7.53;;
14377;SDS011;7272;53.668;9.578;2024-01-06T02:45:41;7.00;;;6.30;;
14377;SDS011;7272;53.668;9.578;2024-01-06T02:48:42;7.03;;;6.33;;
14377;SDS011;7272;53.668;9.578;2024-01-06T02:51:44;8.03;;;7.27;;
14377;SDS011;7272;53.668;9.578;2024-01-06T02:54:46;8.03;;;7.30;;
14377;SDS011;7272;53.668;9.578;2024-01-06T02:57:47;8.30;;;7.50;;
14377;SDS011;7272;53.668;9.578;2024-01-06T03:00:48;7.90;;;6.83;;
14377;SDS011;7272;53.668;9.578;2024-01-06T03:03:49;7.27;;;6.57;;
14377;SDS011;7272;53.668;9.578;2024-01-06T03:06:51;8.20;;;7.43;;
14377;SDS011;7272;53.668;9.578;2024-01-06T03:09:54;7.93;;;7.23;;
14377;SDS011;7272;53.668;9.578;2024-01-06T03:12:55;7.67;;;6.97;;
14377;SDS011;7272;53.668;9.578;2024-01-06T03:15:56;8.77;;;7.87;;
14377;SDS011;7272;53.668;9.578;2024-01-06T03:18:57;8.70;;;7.90;;
14377;SDS011;7272;53.668;9.578;2024-01-06T03:21:59;7.97;;;7.27;;
14377;SDS011;7272;53.668;9.578;2024-01-06T03:25:00;8.27;;;7.60;;
14377;SDS011;7272;53.668;9.578;2024-01-06T03:28:03;8.37;;;7.57;;
14377;SDS011;7272;53.668;9.578;2024-01-06T03:31:04;8.90;;;8.00;;
14377;SDS011;7272;53.668;9.578;2024-01-06T03:34:05;7.40;;;6.70;;
14377;SDS011;7272;53.668;9.578;2024-01-06T03:37:08;7.93;;;7.23;;
14377;SDS011;7272;53.668;9.578;2024-01-06T03:40:11;8.77;;;7.43;;
14377;SDS011;7272;53.668;9.578;2024-01-06T03:43:13;8.80;;;7.90;;
14377;SDS011;7272;53.668;9.578;2024-01-06T03:46:14;8.33;;;7.53;;
14377;SDS011;7272;53.668;9.578;2024-01-06T03:49:15;7.83;;;7.10;;
14377;SDS011;7272;53.668;9.578;2024-01-06T03:52:18;8.63;;;7.73;;
14377;SDS011;7272;53.668;9.578;2024-01-06T03:55:21;8.20;;;7.43;;
14377;SDS011;7272;53.668;9.578;2024-01-06T03:58:23;7.70;;;7.00;;
14377;SDS011;7272;53.668;9.578;2024-01-06T04:01:24;8.60;;;7.70;;
14377;SDS011;7272;53.668;9.578;2024-01-06T04:04:25;8.27;;;7.50;;
14377;SDS011;7272;53.668;9.578;2024-01-06T04:07:26;8.10;;;7.30;;
14377;SDS011;7272;53.668;9.578;2024-01-06T04:10:28;8.33;;;7.50;;
14377;SDS011;7272;53.668;9.578;2024-01-06T04:13:29;8.77;;;7.60;;
14377;SDS011;7272;53.668;9.578;2024-01-06T04:16:31;8.27;;;7.40;;
14377;SDS011;7272;53.668;9.578;2024-01-06T04:19:32;8.77;;;7.97;;
14377;SDS011;7272;53.668;9.578;2024-01-06T04:22:33;7.23;;;6.53;;
14377;SDS011;7272;53.668;9.578;2024-01-06T04:25:35;8.30;;;7.20;;
14377;SDS011;7272;53.668;9.578;2024-01-06T04:28:36;7.90;;;7.20;;
14377;SDS011;7272;53.668;9.578;2024-01-06T04:31:38;8.10;;;7.30;;
14377;SDS011;7272;53.668;9.578;2024-01-06T04:34:40;7.77;;;7.00;;
14377;SDS011;7272;53.668;9.578;2024-01-06T04:37:42;8.27;;;7.47;;
14377;SDS011;7272;53.668;9.578;2024-01-06T04:40:44;7.53;;;6.90;;
14377;SDS011;7272;53.668;9.578;2024-01-06T04:43:45;8.07;;;7.27;;
14377;SDS011;7272;53.668;9.578;2024-01-06T04:46:47;6.93;;;6.33;;
14377;SDS011;7272;53.668;9.578;2024-01-06T04:49:48;7.23;;;6.63;;
14377;SDS011;7272;53.668;9.578;2024-01-06T04:52:50;7.13;;;6.43;;
14377;SDS011;7272;53.668;9.578;2024-01-06T04:55:52;7.73;;;7.03;;
14377;SDS011;7272;53.668;9.578;2024-01-06T04:58:53;8.53;;;7.73;;
14377;SDS011;7272;53.668;9.578;2024-01-06T05:01:54;8.20;;;7.40;;
14377;SDS011;7272;53.668;9.578;2024-01-06T05:04:57;8.37;;;7.57;;
14377;SDS011;7272;53.668;9.578;2024-01-06T05:07:58;8.00;;;7.20;;
14377;SDS011;7272;53.668;9.578;2024-01-06T05:11:01;9.23;;;7.87;;
14377;SDS011;7272;53.668;9.578;2024-01-06T05:14:02;8.67;;;7.80;;
14377;SDS011;7272;53.668;9.578;2024-01-06T05:17:03;7.77;;;7.07;;
14377;SDS011;7272;53.668;9.578;2024-01-06T05:20:05;8.47;;;7.57;;
14377;SDS011;7272;53.668;9.578;2024-01-06T05:23:07;8.87;;;7.60;;
14377;SDS011;7272;53.668;9.578;2024-01-06T05:26:09;9.17;;;7.47;;
14377;SDS011;7272;53.668;9.578;2024-01-06T05:29:11;7.97;;;7.20;;
14377;SDS011;7272;53.668;9.578;2024-01-06T05:32:13;8.37;;;7.50;;
14377;SDS011;7272;53.668;9.578;2024-01-06T05:35:15;8.13;;;7.43;;
14377;SDS011;7272;53.668;9.578;2024-01-06T05:38:17;9.50;;;8.50;;
14377;SDS011;7272;53.668;9.578;2024-01-06T05:41:19;8.50;;;7.60;;
14377;SDS011;7272;53.668;9.578;2024-01-06T05:44:21;8.17;;;7.37;;
14377;SDS011;7272;53.668;9.578;2024-01-06T05:47:22;7.97;;;7.27;;
14377;SDS011;7272;53.668;9.578;2024-01-06T05:50:23;8.53;;;7.73;;
14377;SDS011;7272;53.668;9.578;2024-01-06T05:53:24;8.67;;;7.87;;
14377;SDS011;7272;53.668;9.578;2024-01-06T05:56:28;9.03;;;7.57;;
14377;SDS011;7272;53.668;9.578;2024-01-06T05:59:29;9.10;;;8.20;;
14377;SDS011;7272;53.668;9.578;2024-01-06T06:02:33;9.43;;;8.53;;
14377;SDS011;7272;53.668;9.578;2024-01-06T06:05:34;8.93;;;8.13;;
14377;SDS011;7272;53.668;9.578;2024-01-06T06:08:37;8.30;;;7.50;;
14377;SDS011;7272;53.668;9.578;2024-01-06T06:11:38;9.03;;;8.07;;
14377;SDS011;7272;53.668;9.578;2024-01-06T06:14:40;9.23;;;8.23;;
14377;SDS011;7272;53.668;9.578;2024-01-06T06:17:41;8.80;;;7.90;;
14377;SDS011;7272;53.668;9.578;2024-01-06T06:20:42;9.20;;;8.07;;
14377;SDS011;7272;53.668;9.578;2024-01-06T06:23:44;9.30;;;8.07;;
14377;SDS011;7272;53.668;9.578;2024-01-06T06:26:45;9.03;;;8.20;;
14377;SDS011;7272;53.668;9.578;2024-01-06T06:29:47;9.00;;;8.10;;
14377;SDS011;7272;53.668;9.578;2024-01-06T06:32:48;9.70;;;8.70;;
14377;SDS011;7272;53.668;9.578;2024-01-06T06:35:49;9.33;;;7.87;;
14377;SDS011;7272;53.668;9.578;2024-01-06T06:38:50;8.97;;;8.07;;
14377;SDS011;7272;53.668;9.578;2024-01-06T06:41:52;9.60;;;8.60;;
14377;SDS011;7272;53.668;9.578;2024-01-06T06:44:53;8.87;;;7.97;;
14377;SDS011;7272;53.668;9.578;2024-01-06T06:47:54;10.03;;;8.87;;
14377;SDS011;7272;53.668;9.578;2024-01-06T06:50:56;10.70;;;9.60;;
14377;SDS011;7272;53.668;9.578;2024-01-06T06:53:57;9.90;;;8.47;;
14377;SDS011;7272;53.668;9.578;2024-01-06T06:56:59;9.53;;;8.60;;
14377;SDS011;7272;53.668;9.578;2024-01-06T07:00:00;9.17;;;8.27;;
14377;SDS011;7272;53.668;9.578;2024-01-06T07:03:02;9.63;;;8.63;;
14377;SDS011;7272;53.668;9.578;2024-01-06T07:06:03;10.50;;;9.50;;
14377;SDS011;7272;53.668;9.578;2024-01-06T07:09:05;11.00;;;9.80;;
14377;SDS011;7272;53.668;9.578;2024-01-06T07:12:07;10.23;;;9.13;;
14377;SDS011;7272;53.668;9.578;2024-01-06T07:15:08;9.30;;;8.50;;
14377;SDS011;7272;53.668;9.578;2024-01-06T07:18:10;9.43;;;8.53;;
14377;SDS011;7272;53.668;9.578;2024-01-06T07:21:11;9.30;;;8.40;;
14377;SDS011;7272;53.668;9.578;2024-01-06T07:24:12;10.43;;;9.20;;
14377;SDS011;7272;53.668;9.578;2024-01-06T07:27:15;11.17;;;10.03;;
14377;SDS011;7272;53.668;9.578;2024-01-06T07:30:16;11.07;;;9.83;;
14377;SDS011;7272;53.668;9.578;2024-01-06T07:33:17;9.90;;;8.53;;
14377;SDS011;7272;53.668;9.578;2024-01-06T07:36:18;9.37;;;8.40;;
14377;SDS011;7272;53.668;9.578;2024-01-06T07:39:21;8.87;;;7.97;;
14377;SDS011;7272;53.668;9.578;2024-01-06T07:42:25;9.37;;;8.50;;
14377;SDS011;7272;53.668;9.578;2024-01-06T07:45:26;8.93;;;8.07;;
14377;SDS011;7272;53.668;9.578;2024-01-06T07:48:27;9.40;;;8.43;;
14377;SDS011;7272;53.668;9.578;2024-01-06T07:51:28;8.77;;;7.87;;
14377;SDS011;7272;53.668;9.578;2024-01-06T07:54:29;9.47;;;8.57;;
14377;SDS011;7272;53.668;9.578;2024-01-06T07:57:31;10.03;;;8.90;;
14377;SDS011;7272;53.668;9.578;2024-01-06T08:00:32;9.20;;;8.27;;
14377;SDS011;7272;53.668;9.578;2024-01-06T08:03:34;8.37;;;7.57;;
14377;SDS011;7272;53.668;9.578;2024-01-06T08:06:35;9.10;;;8.10;;
14377;SDS011;7272;53.668;9.578;2024-01-06T08:09:36;8.93;;;8.03;;
14377;SDS011;7272;53.668;9.578;2024-01-06T08:12:38;8.07;;;7.27;;
14377;SDS011;7272;53.668;9.578;2024-01-06T08:15:39;9.47;;;8.43;;
14377;SDS011;7272;53.668;9.578;2024-01-06T08:18:40;8.03;;;7.00;;
14377;SDS011;7272;53.668;9.578;2024-01-06T08:21:42;7.90;;;7.10;;
14377;SDS011;7272;53.668;9.578;2024-01-06T08:24:43;8.13;;;7.33;;
14377;SDS011;7272;53.668;9.578;2024-01-06T08:27:45;7.70;;;6.73;;
14377;SDS011;7272;53.668;9.578;2024-01-06T08:30:46;8.30;;;7.50;;
14377;SDS011;7272;53.668;9.578;2024-01-06T08:33:47;7.40;;;6.70;;
14377;SDS011;7272;53.668;9.578;2024-01-06T08:36:48;8.53;;;7.67;;
14377;SDS011;7272;53.668;9.578;2024-01-06T08:39:51;8.43;;;7.17;;
14377;SDS011;7272;53.668;9.578;2024-01-06T08:42:53;7.43;;;6.63;;
14377;SDS011;7272;53.668;9.578;2024-01-06T08:45:54;7.87;;;6.80;;
14377;SDS011;7272;53.668;9.578;2024-01-06T08:48:55;7.90;;;7.10;;
14377;SDS011;7272;53.668;9.578;2024-01-06T08:51:56;7.93;;;7.13;;
14377;SDS011;7272;53.668;9.578;2024-01-06T08:54:58;7.43;;;6.73;;
14377;SDS011;7272;53.668;9.578;2024-01-06T08:58:00;8.73;;;7.83;;
14377;SDS011;7272;53.668;9.578;2024-01-06T09:01:01;8.37;;;7.50;;
14377;SDS011;7272;53.668;9.578;2024-01-06T09:04:03;8.73;;;7.83;;
14377;SDS011;7272;53.668;9.578;2024-01-06T09:07:04;8.83;;;7.90;;
14377;SDS011;7272;53.668;9.578;2024-01-06T09:10:06;8.60;;;7.80;;
14377;SDS011;7272;53.668;9.578;2024-01-06T09:13:10;7.73;;;7.03;;
14377;SDS011;7272;53.668;9.578;2024-01-06T09:16:11;8.60;;;7.70;;
14377;SDS011;7272;53.668;9.578;2024-01-06T09:19:13;9.20;;;8.30;;
14377;SDS011;7272;53.668;9.578;2024-01-06T09:22:14;9.13;;;8.03;;
14377;SDS011;7272;53.668;9.578;2024-01-06T09:25:15;10.13;;;8.43;;
14377;SDS011;7272;53.668;9.578;2024-01-06T09:28:17;9.13;;;8.23;;
14377;SDS011;7272;53.668;9.578;2024-01-06T09:31:18;8.70;;;7.80;;
14377;SDS011;7272;53.668;9.578;2024-01-06T09:34:19;8.50;;;7.70;;
14377;SDS011;7272;53.668;9.578;2024-01-06T09:37:21;8.93;;;8.07;;
14377;SDS011;7272;53.668;9.578;2024-01-06T09:40:22;8.43;;;7.53;;
14377;SDS011;7272;53.668;9.578;2024-01-06T09:43:25;8.73;;;7.83;;
14377;SDS011;7272;53.668;9.578;2024-01-06T09:46:27;9.10;;;8.20;;
14377;SDS011;7272;53.668;9.578;2024-01-06T09:49:29;8.93;;;8.03;;
14377;SDS011;7272;53.668;9.578;2024-01-06T09:52:32;8.03;;;7.03;;
14377;SDS011;7272;53.668;9.578;2024-01-06T09:55:35;8.50;;;7.53;;
14377;SDS011;7272;53.668;9.578;2024-01-06T09:58:37;8.63;;;7.80;;
14377;SDS011;7272;53.668;9.578;2024-01-06T10:01:40;9.27;;;7.73;;
14377;SDS011;7272;53.668;9.578;2024-01-06T10:04:42;8.87;;;7.93;;
14377;SDS011;7272;53.668;9.578;2024-01-06T10:07:43;9.07;;;8.17;;
14377;SDS011;7272;53.668;9.578;2024-01-06T10:10:45;9.40;;;8.00;;
14377;SDS011;7272;53.668;9.578;2024-01-06T10:13:48;8.43;;;7.20;;
14377;SDS011;7272;53.668;9.578;2024-01-06T10:16:50;7.87;;;7.07;;
14377;SDS011;7272;53.668;9.578;2024-01-06T10:19:52;7.97;;;7.13;;
14377;SDS011;7272;53.668;9.578;2024-01-06T10:22:55;7.93;;;7.13;;
14377;SDS011;7272;53.668;9.578;2024-01-06T10:26:05;8.20;;;7.40;;
14377;SDS011;7272;53.668;9.578;2024-01-06T10:29:07;7.73;;;6.93;;
14377;SDS011;7272;53.668;9.578;2024-01-06T10:32:09;9.03;;;7.87;;
14377;SDS011;7272;53.668;9.578;2024-01-06T10:35:10;8.37;;;7.37;;
14377;SDS011;7272;53.668;9.578;2024-01-06T10:38:12;8.77;;;7.87;;
14377;SDS011;7272;53.668;9.578;2024-01-06T10:41:16;8.20;;;7.40;;
14377;SDS011;7272;53.668;9.578;2024-01-06T10:44:19;8.97;;;8.07;;
14377;SDS011;7272;53.668;9.578;2024-01-06T10:47:22;8.33;;;7.53;;
14377;SDS011;7272;53.668;9.578;2024-01-06T10:50:26;8.83;;;7.93;;
14377;SDS011;7272;53.668;9.578;2024-01-06T10:53:29;8.67;;;7.77;;
14377;SDS011;7272;53.668;9.578;2024-01-06T10:56:31;7.63;;;6.80;;
14377;SDS011;7272;53.668;9.578;2024-01-06T10:59:38;8.10;;;6.50;;
14377;SDS011;7272;53.668;9.578;2024-01-06T11:02:40;7.87;;;6.83;;
14377;SDS011;7272;53.668;9.578;2024-01-06T11:05:42;8.13;;;6.67;;
14377;SDS011;7272;53.668;9.578;2024-01-06T11:08:46;7.37;;;6.50;;
14377;SDS011;7272;53.668;9.578;2024-01-06T11:11:52;8.17;;;7.10;;
14377;SDS011;7272;53.668;9.578;2024-01-06T11:14:55;7.67;;;6.97;;
14377;SDS011;7272;53.668;9.578;2024-01-06T11:17:56;7.67;;;6.93;;
14377;SDS011;7272;53.668;9.578;2024-01-06T11:21:14;7.23;;;6.50;;
14377;SDS011;7272;53.668;9.578;2024-01-06T11:24:18;7.87;;;7.07;;
14377;SDS011;7272;53.668;9.578;2024-01-06T11:27:25;7.60;;;6.90;;
14377;SDS011;7272;53.668;9.578;2024-01-06T11:30:29;8.17;;;6.37;;
14377;SDS011;7272;53.668;9.578;2024-01-06T11:33:30;8.13;;;6.80;;
14377;SDS011;7272;53.668;9.578;2024-01-06T11:36:31;6.83;;;5.93;;
14377;SDS011;7272;53.668;9.578;2024-01-06T11:39:36;7.40;;;6.70;;
14377;SDS011;7272;53.668;9.578;2024-01-06T11:42:39;6.90;;;5.87;;
14377;SDS011;7272;53.668;9.578;2024-01-06T11:45:42;7.23;;;6.17;;
14377;SDS011;7272;53.668;9.578;2024-01-06T11:48:44;6.50;;;5.77;;
14377;SDS011;7272;53.668;9.578;2024-01-06T11:51:51;5.63;;;5.13;;
14377;SDS011;7272;53.668;9.578;2024-01-06T11:54:54;6.70;;;6.10;;
14377;SDS011;7272;53.668;9.578;2024-01-06T11:57:56;6.13;;;5.53;;
14377;SDS011;7272;53.668;9.578;2024-01-06T12:00:58;5.73;;;5.23;;
14377;SDS011;7272;53.668;9.578;2024-01-06T12:04:00;6.33;;;5.40;;
14377;SDS011;7272;53.668;9.578;2024-01-06T12:07:05;6.10;;;5.50;;
14377;SDS011;7272;53.668;9.578;2024-01-06T12:10:07;5.67;;;4.63;;
14377;SDS011;7272;53.668;9.578;2024-01-06T12:13:09;4.83;;;4.33;;
14377;SDS011;7272;53.668;9.578;2024-01-06T12:16:15;4.53;;;4.13;;
14377;SDS011;7272;53.668;9.578;2024-01-06T12:19:16;4.47;;;4.00;;
14377;SDS011;7272;53.668;9.578;2024-01-06T12:22:17;4.93;;;4.50;;
14377;SDS011;7272;53.668;9.578;2024-01-06T12:25:20;4.20;;;3.87;;
14377;SDS011;7272;53.668;9.578;2024-01-06T12:28:22;4.60;;;4.20;;
14377;SDS011;7272;53.668;9.578;2024-01-06T12:31:24;4.90;;;4.40;;
14377;SDS011;7272;53.668;9.578;2024-01-06T12:34:27;4.97;;;4.50;;
14377;SDS011;7272;53.668;9.578;2024-01-06T12:37:28;4.87;;;4.37;;
14377;SDS011;7272;53.668;9.578;2024-01-06T12:40:30;4.90;;;4.50;;
14377;SDS011;7272;53.668;9.578;2024-01-06T12:43:31;4.43;;;4.10;;
14377;SDS011;7272;53.668;9.578;2024-01-06T12:46:33;4.47;;;4.07;;
14377;SDS011;7272;53.668;9.578;2024-01-06T12:49:35;4.53;;;4.13;;
14377;SDS011;7272;53.668;9.578;2024-01-06T12:52:36;4.67;;;4.27;;
14377;SDS011;7272;53.668;9.578;2024-01-06T12:55:39;4.60;;;4.20;;
14377;SDS011;7272;53.668;9.578;2024-01-06T12:58:40;5.17;;;4.63;;
14377;SDS011;7272;53.668;9.578;2024-01-06T13:01:42;4.97;;;4.50;;
14377;SDS011;7272;53.668;9.578;2024-01-06T13:04:44;4.63;;;4.23;;
14377;SDS011;7272;53.668;9.578;2024-01-06T13:07:45;4.80;;;4.30;;
14377;SDS011;7272;53.668;9.578;2024-01-06T13:10:46;5.77;;;4.63;;
14377;SDS011;7272;53.668;9.578;2024-01-06T13:13:47;5.53;;;4.83;;
14377;SDS011;7272;53.668;9.578;2024-01-06T13:16:49;4.93;;;4.43;;
14377;SDS011;7272;53.668;9.578;2024-01-06T13:19:50;6.50;;;4.73;;
14377;SDS011;7272;53.668;9.578;2024-01-06T13:22:52;5.67;;;5.17;;
14377;SDS011;7272;53.668;9.578;2024-01-06T13:25:53;4.50;;;4.10;;
14377;SDS011;7272;53.668;9.578;2024-01-06T13:28:54;4.63;;;4.23;;
14377;SDS011;7272;53.668;9.578;2024-01-06T13:31:56;4.77;;;4.33;;
14377;SDS011;7272;53.668;9.578;2024-01-06T13:34:59;4.77;;;4.27;;
14377;SDS011;7272;53.668;9.578;2024-01-06T13:38:04;4.67;;;4.27;;
14377;SDS011;7272;53.668;9.578;2024-01-06T13:41:05;4.67;;;4.17;;
14377;SDS011;7272;53.668;9.578;2024-01-06T13:44:07;4.53;;;4.17;;
14377;SDS011;7272;53.668;9.578;2024-01-06T13:47:10;4.77;;;4.37;;
14377;SDS011;7272;53.668;9.578;2024-01-06T13:50:11;5.23;;;4.73;;
14377;SDS011;7272;53.668;9.578;2024-01-06T13:53:13;4.30;;;3.90;;
14377;SDS011;7272;53.668;9.578;2024-01-06T13:56:15;4.30;;;3.90;;
14377;SDS011;7272;53.668;9.578;2024-01-06T13:59:17;4.43;;;4.10;;
14377;SDS011;7272;53.668;9.578;2024-01-06T14:02:19;4.27;;;3.87;;
14377;SDS011;7272;53.668;9.578;2024-01-06T14:05:21;5.00;;;4.30;;
14377;SDS011;7272;53.668;9.578;2024-01-06T14:08:22;5.27;;;4.03;;
14377;SDS011;7272;53.668;9.578;2024-01-06T14:11:24;4.67;;;4.27;;
14377;SDS011;7272;53.668;9.578;2024-01-06T14:14:26;5.60;;;5.03;;
14377;SDS011;7272;53.668;9.578;2024-01-06T14:17:28;4.80;;;4.40;;
14377;SDS011;7272;53.668;9.578;2024-01-06T14:20:29;5.80;;;4.47;;
14377;SDS011;7272;53.668;9.578;2024-01-06T14:23:32;4.23;;;3.83;;
14377;SDS011;7272;53.668;9.578;2024-01-06T14:26:33;4.90;;;4.40;;
14377;SDS011;7272;53.668;9.578;2024-01-06T14:29:34;5.20;;;4.70;;
14377;SDS011;7272;53.668;9.578;2024-01-06T14:32:37;5.23;;;4.77;;
14377;SDS011;7272;53.668;9.578;2024-01-06T14:35:38;5.30;;;4.80;;
14377;SDS011;7272;53.668;9.578;2024-01-06T14:38:39;5.17;;;4.60;;
14377;SDS011;7272;53.668;9.578;2024-01-06T14:41:40;4.90;;;4.40;;
14377;SDS011;7272;53.668;9.578;2024-01-06T14:44:41;5.77;;;5.20;;
14377;SDS011;7272;53.668;9.578;2024-01-06T14:47:43;5.77;;;5.07;;
14377;SDS011;7272;53.668;9.578;2024-01-06T14:50:44;6.20;;;5.10;;
14377;SDS011;7272;53.668;9.578;2024-01-06T14:53:45;5.67;;;5.03;;
14377;SDS011;7272;53.668;9.578;2024-01-06T14:56:47;5.47;;;4.97;;
14377;SDS011;7272;53.668;9.578;2024-01-06T14:59:48;5.30;;;4.80;;
14377;SDS011;7272;53.668;9.578;2024-01-06T15:02:50;5.40;;;4.90;;
14377;SDS011;7272;53.668;9.578;2024-01-06T15:05:51;5.17;;;4.77;;
14377;SDS011;7272;53.668;9.578;2024-01-06T15:08:52;7.57;;;5.53;;
14377;SDS011;7272;53.668;9.578;2024-01-06T15:11:54;7.27;;;6.30;;
14377;SDS011;7272;53.668;9.578;2024-01-06T15:14:55;5.73;;;5.23;;
14377;SDS011;7272;53.668;9.578;2024-01-06T15:17:56;7.53;;;6.57;;
14377;SDS011;7272;53.668;9.578;2024-01-06T15:20:58;6.60;;;5.47;;
14377;SDS011;7272;53.668;9.578;2024-01-06T15:23:59;5.97;;;5.43;;
14377;SDS011;7272;53.668;9.578;2024-01-06T15:27:00;6.00;;;5.23;;
14377;SDS011;7272;53.668;9.578;2024-01-06T15:30:02;6.87;;;5.17;;
14377;SDS011;7272;53.668;9.578;2024-01-06T15:33:07;6.13;;;4.77;;
14377;SDS011;7272;53.668;9.578;2024-01-06T15:36:09;5.60;;;5.07;;
14377;SDS011;7272;53.668;9.578;2024-01-06T15:39:10;5.97;;;5.37;;
14377;SDS011;7272;53.668;9.578;2024-01-06T15:42:11;5.07;;;4.67;;
14377;SDS011;7272;53.668;9.578;2024-01-06T15:45:12;6.87;;;5.30;;
14377;SDS011;7272;53.668;9.578;2024-01-06T15:48:15;6.17;;;5.57;;
14377;SDS011;7272;53.668;9.578;2024-01-06T15:51:16;5.53;;;4.93;;
14377;SDS011;7272;53.668;9.578;2024-01-06T15:54:17;5.93;;;5.37;;
14377;SDS011;7272;53.668;9.578;2024-01-06T15:57:19;5.73;;;5.13;;
14377;SDS011;7272;53.668;9.578;2024-01-06T16:00:20;6.50;;;5.90;;
14377;SDS011;7272;53.668;9.578;2024-01-06T16:03:22;9.40;;;7.60;;
14377;SDS011;7272;53.668;9.578;2024-01-06T16:06:23;7.17;;;6.20;;
14377;SDS011;7272;53.668;9.578;2024-01-06T16:09:24;6.90;;;6.20;;
14377;SDS011;7272;53.668;9.578;2024-01-06T16:12:26;7.13;;;6.37;;
14377;SDS011;7272;53.668;9.578;2024-01-06T16:15:29;7.80;;;6.93;;
14377;SDS011;7272;53.668;9.578;2024-01-06T16:18:31;8.50;;;6.77;;
14377;SDS011;7272;53.668;9.578;2024-01-06T16:21:32;7.43;;;6.63;;
14377;SDS011;7272;53.668;9.578;2024-01-06T16:24:33;8.87;;;7.90;;
14377;SDS011;7272;53.668;9.578;2024-01-06T16:27:37;8.23;;;6.40;;
14377;SDS011;7272;53.668;9.578;2024-01-06T16:30:38;6.03;;;5.43;;
14377;SDS011;7272;53.668;9.578;2024-01-06T16:33:40;6.70;;;6.10;;
14377;SDS011;7272;53.668;9.578;2024-01-06T16:36:41;6.67;;;5.87;;
14377;SDS011;7272;53.668;9.578;2024-01-06T16:39:43;5.73;;;5.23;;
14377;SDS011;7272;53.668;9.578;2024-01-06T16:42:44;5.17;;;4.77;;
14377;SDS011;7272;53.668;9.578;2024-01-06T16:45:46;6.60;;;5.53;;
14377;SDS011;7272;53.668;9.578;2024-01-06T16:48:48;5.80;;;5.30;;
14377;SDS011;7272;53.668;9.578;2024-01-06T16:51:49;6.67;;;6.07;;
14377;SDS011;7272;53.668;9.578;2024-01-06T16:54:50;7.03;;;6.03;;
14377;SDS011;7272;53.668;9.578;2024-01-06T16:57:52;9.27;;;6.53;;
14377;SDS011;7272;53.668;9.578;2024-01-06T17:00:59;6.57;;;5.97;;
14377;SDS011;7272;53.668;9.578;2024-01-06T17:04:01;7.03;;;6.43;;
14377;SDS011;7272;53.668;9.578;2024-01-06T17:07:02;10.00;;;6.30;;
14377;SDS011;7272;53.668;9.578;2024-01-06T17:10:04;9.37;;;8.37;;
14377;SDS011;7272;53.668;9.578;2024-01-06T17:13:06;8.10;;;7.30;;
14377;SDS011;7272;53.668;9.578;2024-01-06T17:16:08;8.30;;;7.57;;
14377;SDS011;7272;53.668;9.578;2024-01-06T17:19:09;6.30;;;5.70;;
14377;SDS011;7272;53.668;9.578;2024-01-06T17:22:11;6.87;;;6.23;;
14377;SDS011;7272;53.668;9.578;2024-01-06T17:25:12;6.83;;;6.20;;
14377;SDS011;7272;53.668;9.578;2024-01-06T17:28:13;7.27;;;6.30;;
14377;SDS011;7272;53.668;9.578;2024-01-06T17:31:15;6.67;;;6.07;;
14377;SDS011;7272;53.668;9.578;2024-01-06T17:34:17;5.93;;;5.43;;
14377;SDS011;7272;53.668;9.578;2024-01-06T17:37:18;6.53;;;5.70;;
14377;SDS011;7272;53.668;9.578;2024-01-06T17:40:19;6.33;;;5.73;;
14377;SDS011;7272;53.668;9.578;2024-01-06T17:43:20;6.20;;;5.60;;
14377;SDS011;7272;53.668;9.578;2024-01-06T17:46:21;7.27;;;6.40;;
14377;SDS011;7272;53.668;9.578;2024-01-06T17:49:26;6.43;;;5.53;;
14377;SDS011;7272;53.668;9.578;2024-01-06T17:52:27;5.97;;;5.30;;
14377;SDS011;7272;53.668;9.578;2024-01-06T17:55:29;5.87;;;5.27;;
14377;SDS011;7272;53.668;9.578;2024-01-06T17:58:30;6.60;;;5.77;;
14377;SDS011;7272;53.668;9.578;2024-01-06T18:01:31;5.73;;;5.13;;
14377;SDS011;7272;53.668;9.578;2024-01-06T18:04:33;7.53;;;5.57;;
14377;SDS011;7272;53.668;9.578;2024-01-06T18:07:34;6.40;;;5.63;;
14377;SDS011;7272;53.668;9.578;2024-01-06T18:10:35;5.57;;;5.07;;
14377;SDS011;7272;53.668;9.578;2024-01-06T18:13:37;7.13;;;6.53;;
14377;SDS011;7272;53.668;9.578;2024-01-06T18:16:38;5.87;;;5.27;;
14377;SDS011;7272;53.668;9.578;2024-01-06T18:19:40;6.10;;;5.47;;
14377;SDS011;7272;53.668;9.578;2024-01-06T18:22:42;5.43;;;4.50;;
14377;SDS011;7272;53.668;9.578;2024-01-06T18:25:43;5.43;;;4.40;;
14377;SDS011;7272;53.668;9.578;2024-01-06T18:28:44;6.20;;;4.60;;
14377;SDS011;7272;53.668;9.578;2024-01-06T18:31:45;5.93;;;4.80;;